Terminal Aerodrome Forecast
Issued by NWS

Home | Current Version | Previous Version | Text Only | Print | Product List | Glossary On
Versions: 1 2 3 4 5 6 7 8 9 10 11 12 13 14 15 16 17 18 19 20 21 22 23 24 25
858
FTUS43 KLSX 170128 AAA
TAFCPS
TAF AMD
KCPS 170128Z 1701/1724 20007KT P6SM -SHRA BKN040
     FM170300 18009KT 5SM -SHRA VCTS BKN040CB
      TEMPO 1704/1706 VRB10G20KT 2SM TSRA OVC020CB
     FM170700 19008KT P6SM -SHRA BKN020
     FM170900 17005KT P6SM OVC040
     FM171800 27012KT P6SM SCT045=

USA.gov is the U.S. government's official web portal to all federal, state and local government web resources and services.